ADDS METAR Data INFO
IDs: Format: Raw Decoded Include TAF

Data at: 1153 UTC 25 Jun 2018

KCPR 251053Z AUTO 27006KT 10SM CLR 08/08 A3011 RMK AO2 SLP160 T00830078
KCPR 250953Z AUTO 26006KT 10SM CLR 09/08 A3012 RMK AO2 SLP160 T00890083
KCPR 250853Z AUTO 25006KT 10SM CLR 09/08 A3013 RMK AO2 SLP165 T00890083 56009
KCPR 250753Z AUTO 24006KT 10SM CLR 09/09 A3014 RMK AO2 SLP170 T00940089
KCPR 250653Z AUTO 26006KT 10SM CLR 09/09 A3015 RMK AO2 SLP174 T00940089 401890094
KCPR 250553Z AUTO 30004KT 10SM CLR 11/10 A3016 RMK AO2 SLP176 T01060100 10189 20106 50005
KCPR 250453Z AUTO 31003KT 10SM OVC095 12/11 A3017 RMK AO2 SLP179 T01220106
KCPR 250353Z AUTO 05003KT 10SM FEW100 12/09 A3017 RMK AO2 SLP183 T01170094
KCPR 250253Z AUTO 17004KT 10SM CLR 15/10 A3014 RMK AO2 SLP170 T01500100 53005
KCPR 250153Z 16004KT 10SM SCT080 17/09 A3014 RMK AO2 SLP164 T01720089
KCPR 250053Z 25003KT 10SM FEW100 18/09 A3012 RMK AO2 SLP159 T01830089
KCPR 242353Z 21004KT 10SM FEW042 SCT050 18/09 A3012 RMK AO2 SLP158 60000 T01830089 10189 20144 58012
KCPR 242253Z VRB04KT 10SM SCT040 17/09 A3014 RMK AO2 SLP169 T01670094
KCPR 242153Z 34003KT 10SM FEW035 SCT049 BKN100 18/09 A3015 RMK AO2 SLP169 T01780089
KCPR 242053Z VRB06KT 10SM FEW090 17/09 A3017 RMK AO2 RAB1958E09 SLP174 P0000 60000 T01670089 50004
KCPR 241953Z 06007KT 10SM FEW050 BKN070 BKN120 14/09 A3017 RMK AO2 SLP184 T01440094
KCPR 241853Z 03011KT 10SM FEW025 SCT055 OVC075 15/09 A3017 RMK AO2 SLP178 T01500089
KCPR 241753Z 02006KT 10SM OVC065 14/09 A3015 RMK AO2 RAB31E51 SLP174 P0000 60006 T01440089 10150 20094 51008
KCPR 241653Z VRB04KT 10SM FEW022 BKN035 OVC075 14/09 A3015 RMK AO2 SLP170 T01390089
KCPR 241643Z 28004KT 10SM SCT023 SCT035 OVC070 14/09 A3014 RMK AO2 T01390089
KCPR 241627Z 27006KT 10SM BKN022 OVC055 13/09 A3014 RMK AO2 T01280094
KCPR 241553Z 23005KT 10SM FEW014 BKN060 12/09 A3013 RMK AO2 SLP169 T01170094
KCPR 241453Z 26003KT 10SM FEW009 OVC039 11/09 A3012 RMK AO2 RAE06 SLP166 P0000 60006 T01060094 53009
KCPR 241421Z 00000KT 10SM FEW008 SCT015 OVC046 11/09 A3012 RMK AO2 RAE06 P0000 T01060089
KCPR 241409Z 00000KT 10SM SCT008 BKN014 OVC048 10/09 A3011 RMK AO2 RAE06 P0000 T01000089
KCPR 241353Z 00000KT 10SM -RA FEW008 BKN016 OVC060 10/09 A3011 RMK AO2 SLP163 P0003 T01000094
KCPR 241345Z 32003KT 10SM -RA BKN013 BKN021 OVC065 10/09 A3011 RMK AO2 P0003 T01000094
KCPR 241340Z 30003KT 9SM -RA SCT013 BKN050 OVC065 10/09 A3011 RMK AO2 P0003 T01000094
KCPR 241309Z 32004KT 6SM -RA BR BKN020 BKN025 OVC055 10/09 A3010 RMK AO2 P0001 T01000094
KCPR 241253Z 31004KT 7SM -RA FEW023 BKN035 OVC060 09/09 A3010 RMK AO2 RAB04 SLP161 P0003 T00940094
KCPR 241208Z 30004KT 10SM -RA SCT014 BKN041 OVC049 10/09 A3009 RMK AO2 RAB04 P0000 T01000089
KCPR 241153Z 29003KT 10SM BKN014 OVC019 10/09 A3009 RMK AO2 SLP152 60006 70015 T01000089 10111 20094 53019
KCPR 241109Z 00000KT 10SM BKN014 OVC019 10/09 A3007 RMK AO2 T01000094
KCPR 241053Z AUTO 02004KT 10SM BKN016 OVC022 10/09 A3006 RMK AO2 LTG DSNT NE RAE31 SLP128 P0005 T01000089
KCPR 241031Z AUTO 33004KT 10SM BKN016 OVC043 10/09 A3005 RMK AO2 RAE31 P0005 T01000089
KCPR 240953Z AUTO 19005KT 9SM -RA BKN038 OVC060 10/09 A3004 RMK AO2 RAE00B27 SLP129 P0001 T01000094
KCPR 240853Z AUTO 01006KT 10SM -RA OVC042 11/09 A3002 RMK AO2 RAB48 SLP120 P0000 60000 T01060089 53007
KCPR 240753Z AUTO 35008KT 10SM FEW047 BKN055 BKN110 10/10 A3002 RMK AO2 SLP122 T01000100
KCPR 240653Z AUTO 34007KT 10SM FEW090 10/10 A2999 RMK AO2 SLP104 T01000100 402670094
KCPR 240553Z AUTO 26005KT 10SM CLR 11/10 A3000 RMK AO2 RAB00E24 SLP101 P0000 60005 T01060100 10150 20106 50004
KCPR 240453Z AUTO 27007KT 10SM FEW070 BKN085 BKN110 12/10 A3003 RMK AO2 SLP110 T01220100
KCPR 240353Z AUTO 09005KT 10SM BKN080 BKN100 OVC120 13/11 A3000 RMK AO2 SLP104 T01280111
KCPR 240253Z 08010KT 10SM FEW055 BKN080 OVC120 13/11 A2998 RMK AO2 LTG DSNT S RAE32 TSE05 SLP100 P0002 60005 T01330106 51019
KCPR 240211Z 01003KT 7SM -RA OVC070 13/12 A2998 RMK AO2 LTG DSNT N TSE05 P0001 T01330117
KCPR 240153Z 34006KT 10SM -TSRA SCT065 BKN100 13/11 A2997 RMK AO2 LTG DSNT NW RAB47 TSB50 SLP101 P0000 T01330106
KCPR 240134Z 07007KT 10SM VCTS FEW100 13/11 A2995 RMK AO2 LTG DSNT SW AND W T01330106
KCPR 240053Z 03014KT 10SM FEW048 BKN055 OVC100 13/11 A2994 RMK AO2 LTG DSNT N RAB2358E48 SLP099 P0003 T01330106
KCPR 240032Z 34007KT 8SM -RA FEW046 OVC060 13/10 A2995 RMK AO2 LTG DSNT N-SE RAB2358 P0003 T01280100